Time;durP1;ratioP1;P1;durP2;ratioP2;P2;SDS_P1;SDS_P2;PMS_P1;PMS_P2;Temp;Humidity;BMP_temperature;BMP_pressure;BME280_temperature;BME280_humidity;BME280_pressure;Samples;Min_cycle;Max_cycle;Signal;HPM_P1;HPM_P2
2021/12/27 00:00:36;;;;;;;9.33;8.03;;;3.80;99.90;;;;;;5055683;28;20505;-62
2021/12/27 00:03:06;;;;;;;9.87;8.17;;;3.90;99.90;;;;;;5056731;28;20968;-62
2021/12/27 00:05:33;;;;;;;8.63;7.73;;;3.90;99.90;;;;;;5059685;28;20535;-62
2021/12/27 00:08:03;;;;;;;11.17;8.03;;;3.90;99.90;;;;;;5056822;28;20482;-62
2021/12/27 00:10:30;;;;;;;9.80;8.07;;;3.90;99.90;;;;;;5057373;28;20465;-62
2021/12/27 00:13:05;;;;;;;7.97;7.17;;;3.90;99.90;;;;;;5057088;28;20458;-62
2021/12/27 00:15:34;;;;;;;7.97;7.17;;;3.90;99.90;;;;;;5060615;28;20461;-62
2021/12/27 00:18:08;;;;;;;8.80;6.80;;;3.90;99.90;;;;;;5058558;28;20481;-62
2021/12/27 00:20:35;;;;;;;8.13;6.70;;;3.90;99.90;;;;;;5057826;28;20454;-62
2021/12/27 00:23:02;;;;;;;8.60;7.80;;;3.90;99.90;;;;;;5060143;28;20895;-62
2021/12/27 00:25:30;;;;;;;7.90;7.10;;;3.90;99.90;;;;;;5060285;28;20454;-62
2021/12/27 00:28:00;;;;;;;8.33;7.10;;;3.90;99.90;;;;;;5074932;28;20877;-62
2021/12/27 00:30:27;;;;;;;8.10;6.53;;;3.90;99.90;;;;;;5061652;28;20496;-62
2021/12/27 00:32:55;;;;;;;7.63;6.80;;;3.90;99.90;;;;;;5079377;28;20461;-62
2021/12/27 00:35:26;;;;;;;8.47;7.20;;;3.90;99.90;;;;;;5060847;28;20462;-62
2021/12/27 00:37:53;;;;;;;7.33;6.63;;;4.00;99.90;;;;;;5061137;28;20470;-62
2021/12/27 00:40:22;;;;;;;7.10;6.00;;;4.00;99.90;;;;;;5060328;28;20462;-62
2021/12/27 00:42:50;;;;;;;8.97;7.20;;;4.00;99.90;;;;;;5064416;28;20520;-62
2021/12/27 00:45:20;;;;;;;8.63;7.77;;;3.90;99.90;;;;;;5060940;28;20470;-62
2021/12/27 00:47:47;;;;;;;8.13;7.03;;;3.90;99.90;;;;;;5057650;28;21003;-62
2021/12/27 00:50:14;;;;;;;9.20;8.17;;;3.90;99.90;;;;;;5057983;28;20450;-62
2021/12/27 00:52:46;;;;;;;7.13;6.43;;;3.90;99.90;;;;;;5059774;28;20466;-62
2021/12/27 00:55:15;;;;;;;7.00;6.30;;;3.90;99.90;;;;;;5059498;28;20458;-62
2021/12/27 00:57:42;;;;;;;7.70;7.00;;;3.90;99.90;;;;;;5064382;28;20507;-62
2021/12/27 01:00:15;;;;;;;8.20;7.27;;;3.90;99.90;;;;;;5060372;28;20461;-62
2021/12/27 01:02:42;;;;;;;9.47;8.50;;;3.90;99.90;;;;;;5058597;28;20458;-62
2021/12/27 01:05:11;;;;;;;8.13;7.30;;;3.90;99.90;;;;;;5059068;28;20523;-62
2021/12/27 01:07:38;;;;;;;9.70;7.70;;;3.90;99.90;;;;;;5058889;28;20465;-62
2021/12/27 01:10:24;;;;;;;8.20;7.30;;;3.90;99.90;;;;;;5058647;28;20488;-62
2021/12/27 01:13:03;;;;;;;8.57;7.67;;;3.90;99.90;;;;;;5057007;28;20834;-62
2021/12/27 01:15:47;;;;;;;9.60;8.60;;;3.80;99.90;;;;;;5058128;28;20739;-62
2021/12/27 01:18:15;;;;;;;9.90;8.10;;;3.90;99.90;;;;;;5060033;28;20552;-61
2021/12/27 01:20:42;;;;;;;10.10;8.80;;;3.90;99.90;;;;;;5058851;28;20462;-62
2021/12/27 01:23:12;;;;;;;9.10;8.10;;;3.90;99.90;;;;;;5058603;28;20472;-62
2021/12/27 01:25:41;;;;;;;11.40;8.10;;;3.80;99.90;;;;;;5057838;28;20433;-62
2021/12/27 01:28:10;;;;;;;12.30;8.90;;;3.80;99.90;;;;;;5058509;28;20470;-62
2021/12/27 01:30:47;;;;;;;10.00;8.20;;;3.80;99.90;;;;;;5059206;28;20884;-62
2021/12/27 01:33:15;;;;;;;8.60;7.70;;;3.80;99.90;;;;;;5056398;28;20465;-62
2021/12/27 01:35:42;;;;;;;10.67;8.57;;;3.80;99.90;;;;;;5058082;28;20489;-62
2021/12/27 01:38:13;;;;;;;12.20;8.27;;;3.80;99.90;;;;;;5058413;28;20462;-62
2021/12/27 01:40:45;;;;;;;11.10;8.43;;;3.80;99.90;;;;;;5057143;28;20851;-61
2021/12/27 01:43:15;;;;;;;9.30;8.37;;;3.80;99.90;;;;;;5055602;28;20512;-61
2021/12/27 01:45:45;;;;;;;8.83;7.40;;;3.80;99.90;;;;;;5058228;28;20979;-61
2021/12/27 01:48:17;;;;;;;9.20;8.10;;;3.80;99.90;;;;;;5055692;28;20561;-61
2021/12/27 01:50:46;;;;;;;9.60;8.03;;;3.80;99.90;;;;;;5058539;28;20467;-61
2021/12/27 01:53:14;;;;;;;9.63;7.90;;;3.80;99.90;;;;;;5055728;28;20512;-61
2021/12/27 01:55:46;;;;;;;8.53;7.70;;;3.80;99.90;;;;;;5057669;28;20458;-61
2021/12/27 01:58:14;;;;;;;8.93;7.77;;;3.80;99.90;;;;;;5052426;28;20515;-62
2021/12/27 02:00:46;;;;;;;8.73;7.83;;;3.80;99.90;;;;;;5056596;28;20516;-62
2021/12/27 02:03:15;;;;;;;9.37;7.17;;;3.70;99.90;;;;;;5054989;28;20462;-62
2021/12/27 02:05:43;;;;;;;8.93;7.73;;;3.80;99.90;;;;;;5057167;28;20918;-62
2021/12/27 02:08:10;;;;;;;6.83;6.17;;;3.80;99.90;;;;;;5057542;28;20461;-62
2021/12/27 02:10:49;;;;;;;8.10;7.27;;;3.80;99.90;;;;;;5058282;28;20470;-61
2021/12/27 02:13:18;;;;;;;9.70;7.40;;;3.80;99.90;;;;;;5057680;28;20572;-61
2021/12/27 02:15:46;;;;;;;6.90;6.20;;;3.80;99.90;;;;;;5059043;28;20549;-62
2021/12/27 02:18:16;;;;;;;6.90;6.20;;;3.80;99.90;;;;;;5056648;28;20466;-62
2021/12/27 02:20:45;;;;;;;8.57;6.90;;;3.80;99.90;;;;;;5057552;28;20470;-62
2021/12/27 02:23:16;;;;;;;8.20;7.40;;;3.80;99.90;;;;;;5058189;28;20454;-62
2021/12/27 02:25:44;;;;;;;7.97;6.73;;;3.80;99.90;;;;;;5056481;28;20470;-62
2021/12/27 02:28:12;;;;;;;9.27;7.80;;;3.80;99.90;;;;;;5054396;28;20490;-61
2021/12/27 02:30:41;;;;;;;7.70;6.43;;;3.80;99.90;;;;;;5057449;28;20455;-62
2021/12/27 02:33:10;;;;;;;8.77;7.90;;;3.80;99.90;;;;;;5057343;28;20462;-62
2021/12/27 02:35:40;;;;;;;8.13;7.23;;;3.80;99.90;;;;;;5056890;28;20716;-62
2021/12/27 02:38:10;;;;;;;8.37;7.47;;;3.80;99.90;;;;;;5055780;28;20454;-62
2021/12/27 02:40:39;;;;;;;8.20;7.40;;;3.80;99.90;;;;;;5055414;28;20450;-62
2021/12/27 02:43:08;;;;;;;8.77;7.73;;;3.80;99.90;;;;;;5059293;28;20462;-62
2021/12/27 02:45:37;;;;;;;12.67;8.00;;;3.80;99.90;;;;;;5054628;28;20482;-62
2021/12/27 02:48:07;;;;;;;9.63;7.87;;;3.80;99.90;;;;;;5056442;28;20539;-62
2021/12/27 02:50:35;;;;;;;8.60;7.33;;;3.80;99.90;;;;;;5053485;28;20462;-62
2021/12/27 02:53:03;;;;;;;7.80;7.00;;;3.80;99.90;;;;;;5058484;28;20498;-62
2021/12/27 02:55:32;;;;;;;9.47;8.10;;;3.80;99.90;;;;;;5059513;28;20924;-62
2021/12/27 02:57:59;;;;;;;10.30;8.10;;;3.80;99.90;;;;;;5057162;28;20461;-62
2021/12/27 03:00:29;;;;;;;10.13;8.97;;;3.80;99.90;;;;;;5056925;28;20515;-62
2021/12/27 03:02:58;;;;;;;11.20;8.80;;;3.80;99.90;;;;;;5056077;28;20490;-62
2021/12/27 03:05:27;;;;;;;9.33;8.40;;;3.80;99.90;;;;;;5057636;28;20545;-62
2021/12/27 03:07:58;;;;;;;9.40;7.97;;;3.80;99.90;;;;;;5051007;28;20502;-62
2021/12/27 03:10:28;;;;;;;8.80;7.70;;;3.90;99.90;;;;;;5055586;28;20459;-62
2021/12/27 03:12:59;;;;;;;9.33;8.33;;;3.90;99.90;;;;;;5055454;28;20519;-62
2021/12/27 03:15:29;;;;;;;9.73;8.73;;;3.90;99.90;;;;;;5055691;28;20462;-62
2021/12/27 03:17:57;;;;;;;10.13;9.00;;;3.90;99.90;;;;;;5058073;28;20462;-62
2021/12/27 03:20:27;;;;;;;10.03;8.77;;;3.90;99.90;;;;;;5057374;28;20888;-62
2021/12/27 03:22:55;;;;;;;9.60;8.60;;;3.90;99.90;;;;;;5054721;28;20535;-62
2021/12/27 03:25:24;;;;;;;10.13;8.10;;;3.90;99.90;;;;;;5061069;28;20462;-62
2021/12/27 03:27:52;;;;;;;9.60;8.70;;;3.90;99.90;;;;;;5057332;28;20551;-62
2021/12/27 03:30:23;;;;;;;8.87;7.97;;;3.90;99.90;;;;;;5056595;28;20490;-62
2021/12/27 03:32:53;;;;;;;9.97;9.07;;;3.90;99.90;;;;;;5056520;28;20454;-62
2021/12/27 03:35:26;;;;;;;9.60;7.20;;;3.90;99.90;;;;;;5057260;28;20454;-62
2021/12/27 03:37:56;;;;;;;8.80;7.97;;;3.90;99.90;;;;;;5054052;28;20512;-61
2021/12/27 03:40:23;;;;;;;8.73;7.77;;;3.80;99.90;;;;;;5056473;28;20489;-62
2021/12/27 03:42:54;;;;;;;7.87;7.07;;;3.90;99.90;;;;;;5056307;28;20751;-62
2021/12/27 03:45:24;;;;;;;9.10;8.13;;;3.90;99.90;;;;;;5055868;28;20527;-62
2021/12/27 03:47:52;;;;;;;7.80;7.00;;;3.90;99.90;;;;;;5058777;28;20482;-62
2021/12/27 03:50:20;;;;;;;8.47;7.23;;;3.90;99.90;;;;;;5060558;28;20557;-62
2021/12/27 03:52:48;;;;;;;8.13;6.33;;;3.90;99.90;;;;;;5060607;28;20883;-62
2021/12/27 03:55:15;;;;;;;8.33;7.20;;;4.00;99.90;;;;;;5061022;28;20462;-62
2021/12/27 03:57:51;;;;;;;8.90;7.40;;;4.00;99.90;;;;;;5060167;28;20454;-62
2021/12/27 04:00:32;;;;;;;7.70;7.00;;;3.90;99.90;;;;;;5058244;28;20784;-62
2021/12/27 04:03:01;;;;;;;9.93;8.37;;;4.00;99.90;;;;;;5057855;28;20466;-62
2021/12/27 04:05:29;;;;;;;8.87;7.97;;;4.00;99.90;;;;;;5059542;28;20462;-62
2021/12/27 04:08:01;;;;;;;10.73;8.53;;;4.00;99.90;;;;;;5057074;28;20498;-62
2021/12/27 04:10:29;;;;;;;8.03;7.13;;;4.00;99.90;;;;;;5060006;28;20851;-62
2021/12/27 04:12:56;;;;;;;7.77;7.00;;;4.00;99.90;;;;;;5058353;28;20555;-62
2021/12/27 04:15:24;;;;;;;9.87;7.90;;;4.00;99.90;;;;;;5061606;28;20469;-62
2021/12/27 04:17:52;;;;;;;9.80;7.97;;;4.00;99.90;;;;;;5066577;28;20458;-62
2021/12/27 04:20:22;;;;;;;8.43;7.50;;;4.00;99.90;;;;;;5066956;28;20551;-62
2021/12/27 04:22:50;;;;;;;9.70;7.87;;;4.00;99.90;;;;;;5064221;28;20470;-62
2021/12/27 04:25:18;;;;;;;10.60;9.50;;;4.00;99.90;;;;;;5061406;28;20466;-62
2021/12/27 04:27:46;;;;;;;8.77;7.87;;;4.10;99.90;;;;;;5061161;28;20493;-62
2021/12/27 04:30:13;;;;;;;9.00;8.10;;;4.10;99.90;;;;;;5062497;28;20550;-62
2021/12/27 04:32:41;;;;;;;9.63;8.60;;;4.10;99.90;;;;;;5066101;28;20953;-62
2021/12/27 04:35:09;;;;;;;9.83;8.57;;;4.10;99.90;;;;;;5061057;28;20832;-62
2021/12/27 04:37:40;;;;;;;9.77;8.77;;;4.10;99.90;;;;;;5072248;28;20461;-62
2021/12/27 04:40:11;;;;;;;9.50;8.23;;;4.10;99.90;;;;;;5063415;28;20466;-62
2021/12/27 04:42:40;;;;;;;10.23;9.17;;;4.10;99.90;;;;;;5060102;28;20804;-62
2021/12/27 04:45:11;;;;;;;9.63;8.63;;;4.10;99.90;;;;;;5061217;28;20462;-62
2021/12/27 04:47:39;;;;;;;9.43;8.13;;;4.10;99.90;;;;;;5068651;28;20580;-62
2021/12/27 04:50:07;;;;;;;11.33;9.10;;;4.10;99.90;;;;;;5061020;28;20737;-62
2021/12/27 04:52:34;;;;;;;9.90;8.03;;;4.00;99.90;;;;;;5060920;28;20465;-62
2021/12/27 04:55:02;;;;;;;8.97;8.07;;;4.10;99.90;;;;;;5060667;28;20466;-62
2021/12/27 04:57:30;;;;;;;9.13;7.87;;;4.10;99.90;;;;;;5060502;28;20458;-62
2021/12/27 04:59:57;;;;;;;10.17;8.50;;;4.10;99.90;;;;;;5060478;28;20458;-62
2021/12/27 05:02:24;;;;;;;9.63;8.63;;;4.10;99.90;;;;;;5064351;28;20516;-62
2021/12/27 05:04:51;;;;;;;10.50;8.03;;;4.10;99.90;;;;;;5061150;28;20466;-62
2021/12/27 05:07:18;;;;;;;9.80;8.50;;;4.10;99.90;;;;;;5059979;28;20756;-62
2021/12/27 05:09:45;;;;;;;8.80;7.90;;;4.10;99.90;;;;;;5060862;28;20470;-62
2021/12/27 05:12:14;;;;;;;9.87;8.63;;;4.10;99.90;;;;;;5060167;28;20480;-62
2021/12/27 05:14:41;;;;;;;10.73;8.80;;;4.00;99.90;;;;;;5040389;28;20467;-62
2021/12/27 05:17:08;;;;;;;9.17;7.90;;;4.10;99.90;;;;;;5040771;28;20455;-62
2021/12/27 05:19:35;;;;;;;9.53;8.10;;;4.20;99.90;;;;;;5071815;28;20511;-62
2021/12/27 05:22:02;;;;;;;10.17;8.27;;;4.20;99.90;;;;;;5060486;28;20466;-62
2021/12/27 05:24:29;;;;;;;9.17;8.27;;;4.20;99.90;;;;;;5078202;28;20464;-62
2021/12/27 05:26:56;;;;;;;11.17;9.00;;;4.20;99.90;;;;;;5061698;28;20465;-62
2021/12/27 05:29:25;;;;;;;8.80;7.67;;;4.20;99.90;;;;;;5067723;28;20461;-62
2021/12/27 05:31:52;;;;;;;10.50;8.90;;;4.10;99.90;;;;;;5061354;28;20482;-62
2021/12/27 05:34:20;;;;;;;9.33;7.87;;;4.20;99.90;;;;;;5073558;28;20465;-62
2021/12/27 05:36:47;;;;;;;8.70;7.57;;;4.20;99.90;;;;;;5061804;28;20466;-62
2021/12/27 05:39:21;;;;;;;9.63;8.63;;;4.20;99.90;;;;;;5059815;28;20895;-62
2021/12/27 05:41:49;;;;;;;9.43;8.53;;;4.10;99.90;;;;;;5059712;28;20441;-62
2021/12/27 05:44:18;;;;;;;9.23;7.70;;;4.20;99.90;;;;;;5059865;28;20470;-62
2021/12/27 05:46:46;;;;;;;10.00;8.43;;;4.20;99.90;;;;;;5059505;28;20490;-62
2021/12/27 05:49:15;;;;;;;10.67;9.00;;;4.20;99.90;;;;;;5059479;28;20498;-62
2021/12/27 05:51:43;;;;;;;11.73;9.00;;;4.20;99.90;;;;;;5077104;28;20568;-62
2021/12/27 05:54:10;;;;;;;11.63;9.20;;;4.20;99.90;;;;;;5063268;28;20469;-62
2021/12/27 05:56:37;;;;;;;10.43;8.80;;;4.30;99.90;;;;;;5059682;28;20466;-62
2021/12/27 05:59:08;;;;;;;10.60;9.10;;;4.30;99.90;;;;;;5059450;28;20860;-62
2021/12/27 06:01:37;;;;;;;12.70;9.77;;;4.30;99.90;;;;;;5059553;28;20458;-62
2021/12/27 06:04:06;;;;;;;10.60;8.40;;;4.30;99.90;;;;;;5059102;28;20455;-62
2021/12/27 06:06:33;;;;;;;11.13;8.23;;;4.30;99.90;;;;;;5040039;28;20470;-62
2021/12/27 06:09:00;;;;;;;11.30;9.50;;;4.30;99.90;;;;;;5019837;28;20492;-62
2021/12/27 06:11:27;;;;;;;10.47;9.07;;;4.30;99.90;;;;;;5021439;28;20460;-62
2021/12/27 06:13:54;;;;;;;12.37;9.97;;;4.30;99.90;;;;;;5019990;28;20522;-62
2021/12/27 06:16:21;;;;;;;12.40;9.47;;;4.30;99.90;;;;;;5019150;28;20464;-62
2021/12/27 06:18:49;;;;;;;12.33;8.90;;;4.40;99.90;;;;;;5019561;28;20551;-62
2021/12/27 06:21:17;;;;;;;11.90;9.60;;;4.40;99.90;;;;;;5019559;28;20468;-62
2021/12/27 06:23:46;;;;;;;12.73;10.30;;;4.40;99.90;;;;;;5019273;28;20471;-62
2021/12/27 06:26:13;;;;;;;13.17;9.67;;;4.40;99.90;;;;;;5018998;28;20464;-62
2021/12/27 06:28:40;;;;;;;11.80;9.90;;;4.40;99.90;;;;;;5015954;28;20496;-62
2021/12/27 06:31:07;;;;;;;14.53;10.03;;;4.40;99.90;;;;;;5019184;28;20470;-62
2021/12/27 06:33:38;;;;;;;13.23;10.57;;;4.40;99.90;;;;;;5017525;28;20471;-62
2021/12/27 06:36:05;;;;;;;12.90;10.53;;;4.40;99.90;;;;;;5022381;28;20463;-62
2021/12/27 06:38:33;;;;;;;11.40;10.00;;;4.50;99.90;;;;;;5034087;28;20907;-62
2021/12/27 06:41:01;;;;;;;13.03;10.07;;;4.50;99.90;;;;;;5019478;28;20518;-62
2021/12/27 06:43:31;;;;;;;14.73;10.37;;;4.50;99.90;;;;;;5025259;28;20487;-62
2021/12/27 06:45:58;;;;;;;13.17;10.43;;;4.50;99.90;;;;;;5020043;28;20485;-62
2021/12/27 06:48:25;;;;;;;35.13;22.60;;;4.50;99.90;;;;;;5033689;28;20492;-62
2021/12/27 06:50:52;;;;;;;14.23;11.33;;;4.50;99.90;;;;;;5033132;28;20464;-62
2021/12/27 06:53:19;;;;;;;12.10;10.17;;;4.50;99.90;;;;;;5019572;28;20464;-62
2021/12/27 06:55:48;;;;;;;11.27;9.53;;;4.50;99.90;;;;;;5019213;28;20882;-62
2021/12/27 06:58:16;;;;;;;18.87;13.53;;;4.50;99.90;;;;;;5018530;28;20846;-62
2021/12/27 07:00:43;;;;;;;11.13;9.73;;;4.50;99.90;;;;;;5023466;28;20501;-62
2021/12/27 07:03:11;;;;;;;11.17;9.27;;;4.60;99.90;;;;;;5020017;28;20475;-62
2021/12/27 07:05:38;;;;;;;12.50;9.40;;;4.60;99.90;;;;;;5019150;28;20886;-62
2021/12/27 07:08:05;;;;;;;12.63;11.23;;;4.60;99.90;;;;;;5042712;28;20513;-62
2021/12/27 07:10:42;;;;;;;14.07;11.30;;;4.60;99.90;;;;;;5058923;28;20516;-62
2021/12/27 07:13:10;;;;;;;16.73;14.03;;;4.60;99.90;;;;;;5044358;28;20816;-62
2021/12/27 07:15:41;;;;;;;10.30;9.20;;;4.70;99.90;;;;;;5063428;28;20472;-62
2021/12/27 07:18:22;;;;;;;26.77;20.10;;;4.70;99.90;;;;;;5070920;28;20561;-62
2021/12/27 07:20:50;;;;;;;30.13;19.67;;;4.70;99.90;;;;;;5065165;28;20875;-62
2021/12/27 07:23:17;;;;;;;24.43;17.47;;;4.70;99.90;;;;;;5058156;28;20901;-62
2021/12/27 07:25:44;;;;;;;20.30;14.07;;;4.70;99.90;;;;;;5061061;28;20465;-62
2021/12/27 07:28:13;;;;;;;13.47;11.07;;;4.70;99.90;;;;;;5059968;28;20494;-62
2021/12/27 07:30:40;;;;;;;40.30;24.23;;;4.70;99.90;;;;;;5060181;28;20891;-62
2021/12/27 07:33:07;;;;;;;29.93;20.93;;;4.70;99.90;;;;;;5057776;28;20462;-62
2021/12/27 07:35:37;;;;;;;11.47;10.27;;;4.70;99.90;;;;;;5058864;28;20527;-62
2021/12/27 07:38:05;;;;;;;11.63;10.40;;;4.70;99.90;;;;;;5076743;28;20519;-62
2021/12/27 07:40:32;;;;;;;12.23;8.93;;;4.70;99.90;;;;;;5058280;28;20465;-62
2021/12/27 07:43:00;;;;;;;11.90;10.17;;;4.70;99.90;;;;;;5058255;28;20470;-62
2021/12/27 07:45:29;;;;;;;12.83;9.17;;;4.70;99.90;;;;;;5058625;28;20462;-62
2021/12/27 07:47:56;;;;;;;11.27;9.00;;;4.70;99.90;;;;;;5058323;28;20489;-62
2021/12/27 07:50:23;;;;;;;9.73;8.30;;;4.80;99.90;;;;;;5057813;28;20867;-62
2021/12/27 07:52:51;;;;;;;11.73;9.30;;;4.70;99.90;;;;;;5057637;28;20536;-62
2021/12/27 07:55:21;;;;;;;10.57;9.30;;;4.80;99.90;;;;;;5057417;28;20466;-62
2021/12/27 07:57:48;;;;;;;11.93;9.70;;;4.80;99.90;;;;;;5048221;28;20544;-62
2021/12/27 08:00:16;;;;;;;10.07;8.30;;;4.80;99.90;;;;;;5058279;28;20466;-62
2021/12/27 08:02:47;;;;;;;12.23;9.60;;;4.70;99.90;;;;;;5058188;28;20470;-62
2021/12/27 08:05:14;;;;;;;8.50;7.60;;;4.80;99.90;;;;;;5067866;28;20898;-62
2021/12/27 08:07:42;;;;;;;9.53;8.10;;;4.80;99.90;;;;;;5057656;28;20934;-62
2021/12/27 08:10:10;;;;;;;9.70;8.00;;;4.80;99.90;;;;;;5057991;28;20753;-62
2021/12/27 08:12:39;;;;;;;10.13;9.07;;;4.90;99.90;;;;;;5065887;28;20469;-62
2021/12/27 08:15:08;;;;;;;11.33;9.10;;;4.90;99.90;;;;;;5058048;28;20561;-62
2021/12/27 08:17:35;;;;;;;10.97;8.77;;;4.90;99.90;;;;;;5057963;28;20876;-62
2021/12/27 08:20:07;;;;;;;11.20;9.37;;;5.00;99.90;;;;;;5057777;28;20463;-62
2021/12/27 08:22:34;;;;;;;10.00;9.00;;;5.10;99.90;;;;;;5063084;28;20466;-62
2021/12/27 08:25:01;;;;;;;10.57;8.70;;;5.20;99.90;;;;;;5057511;28;20790;-62
2021/12/27 08:27:30;;;;;;;13.60;8.73;;;5.20;99.90;;;;;;5055805;28;20474;-62
2021/12/27 08:30:00;;;;;;;11.87;8.83;;;5.20;99.90;;;;;;5055585;28;20568;-62
2021/12/27 08:32:27;;;;;;;11.70;8.83;;;5.30;99.90;;;;;;5065421;28;20809;-62
2021/12/27 08:34:54;;;;;;;12.07;9.27;;;5.30;99.90;;;;;;5062170;28;20470;-62
2021/12/27 08:37:22;;;;;;;11.80;9.63;;;5.30;99.90;;;;;;5057737;28;20819;-62
2021/12/27 08:39:49;;;;;;;10.97;8.20;;;5.20;99.90;;;;;;5058697;28;20458;-62
2021/12/27 08:42:16;;;;;;;10.50;8.00;;;5.20;99.90;;;;;;5058528;28;20470;-62
2021/12/27 08:44:43;;;;;;;9.43;8.43;;;5.20;99.90;;;;;;5056380;28;20533;-62
2021/12/27 08:47:12;;;;;;;11.80;9.10;;;5.30;99.90;;;;;;5059706;28;20469;-62
2021/12/27 08:49:39;;;;;;;11.20;10.00;;;5.30;99.90;;;;;;5059091;28;20926;-62
2021/12/27 08:52:09;;;;;;;9.53;8.53;;;5.40;99.90;;;;;;5058510;28;20470;-62
2021/12/27 08:54:38;;;;;;;11.67;9.60;;;5.50;99.90;;;;;;5058690;28;20462;-62
2021/12/27 08:57:11;;;;;;;9.97;8.53;;;5.50;99.90;;;;;;5057205;28;20478;-62
2021/12/27 08:59:42;;;;;;;12.83;8.80;;;5.50;99.90;;;;;;5058846;28;20451;-62
2021/12/27 09:02:09;;;;;;;8.80;7.63;;;5.70;99.90;;;;;;5056285;28;20494;-62
2021/12/27 09:04:39;;;;;;;8.47;7.57;;;5.70;99.90;;;;;;5058824;28;20840;-62
2021/12/27 09:07:06;;;;;;;10.43;7.67;;;5.80;99.90;;;;;;5056189;28;20505;-62
2021/12/27 09:09:33;;;;;;;11.97;8.47;;;5.80;99.90;;;;;;5057889;28;20493;-62
2021/12/27 09:12:02;;;;;;;10.37;8.23;;;5.80;99.90;;;;;;5054651;28;20458;-62
2021/12/27 09:14:32;;;;;;;9.30;7.77;;;5.70;99.90;;;;;;5058258;28;20512;-62
2021/12/27 09:17:01;;;;;;;9.40;7.73;;;5.80;99.90;;;;;;5058434;28;20466;-62
2021/12/27 09:19:28;;;;;;;11.63;8.50;;;5.70;99.90;;;;;;5056288;28;20454;-62
2021/12/27 09:21:56;;;;;;;12.70;9.10;;;5.70;99.90;;;;;;5058406;28;20474;-62
2021/12/27 09:24:23;;;;;;;11.30;8.70;;;5.70;99.90;;;;;;5056828;28;20512;-62
2021/12/27 09:26:50;;;;;;;11.23;8.83;;;5.70;99.90;;;;;;5058426;28;20810;-62
2021/12/27 09:29:19;;;;;;;15.80;9.30;;;5.80;99.90;;;;;;5058349;28;20494;-62
2021/12/27 09:31:46;;;;;;;10.20;8.40;;;5.80;99.90;;;;;;5056356;28;20462;-62
2021/12/27 09:34:15;;;;;;;9.50;7.57;;;5.80;99.90;;;;;;5059066;28;20519;-63
2021/12/27 09:36:42;;;;;;;9.90;7.93;;;5.90;99.90;;;;;;5058024;28;20934;-63
2021/12/27 09:39:12;;;;;;;9.70;8.17;;;5.90;99.90;;;;;;5057611;28;20458;-62
2021/12/27 09:41:45;;;;;;;11.57;7.87;;;5.80;99.90;;;;;;5058039;28;20465;-63
2021/12/27 09:44:12;;;;;;;10.00;7.67;;;5.90;99.90;;;;;;5057790;28;20459;-62
2021/12/27 09:46:42;;;;;;;10.03;7.67;;;6.00;99.90;;;;;;5058188;28;20930;-63
2021/12/27 09:49:14;;;;;;;7.60;5.93;;;6.00;99.90;;;;;;5056655;28;20543;-63
2021/12/27 09:51:43;;;;;;;9.53;7.20;;;6.20;99.90;;;;;;5057536;28;20879;-63
2021/12/27 09:54:15;;;;;;;11.10;7.00;;;6.40;99.90;;;;;;5057995;28;20470;-63
2021/12/27 09:56:50;;;;;;;9.10;7.30;;;6.40;99.90;;;;;;5057731;28;20900;-63
2021/12/27 09:59:17;;;;;;;7.77;6.97;;;6.30;99.90;;;;;;5058253;28;20461;-63
2021/12/27 10:01:45;;;;;;;8.10;6.40;;;6.30;99.90;;;;;;5056168;28;20504;-63
2021/12/27 10:04:12;;;;;;;8.17;7.03;;;6.10;99.90;;;;;;5057922;28;20462;-63
2021/12/27 10:06:39;;;;;;;8.37;7.27;;;6.20;99.90;;;;;;5058828;28;20489;-63
2021/12/27 10:09:07;;;;;;;19.60;8.47;;;6.40;99.90;;;;;;5057903;28;20494;-62
2021/12/27 10:11:42;;;;;;;11.00;6.07;;;6.40;99.90;;;;;;5054897;28;20490;-62
2021/12/27 10:14:15;;;;;;;11.80;7.40;;;6.50;99.90;;;;;;5055255;28;20493;-62
2021/12/27 10:16:46;;;;;;;7.97;5.50;;;6.50;99.90;;;;;;5056262;28;20548;-62
2021/12/27 10:19:16;;;;;;;8.07;6.20;;;6.50;99.90;;;;;;5057242;28;20467;-62
2021/12/27 10:21:43;;;;;;;6.33;5.67;;;6.60;99.90;;;;;;5056764;28;20796;-62
2021/12/27 10:24:14;;;;;;;6.83;5.23;;;6.70;99.90;;;;;;5057076;28;20866;-63
2021/12/27 10:26:42;;;;;;;8.43;6.50;;;6.80;99.90;;;;;;5058221;28;20520;-62
2021/12/27 10:29:11;;;;;;;6.63;5.90;;;6.80;99.90;;;;;;5055504;28;20490;-62
2021/12/27 10:32:04;;;;;;;6.93;5.57;;;6.80;99.90;;;;;;5057009;28;20532;-63
2021/12/27 10:34:32;;;;;;;6.30;5.60;;;6.80;99.90;;;;;;5054991;28;20462;-62
2021/12/27 10:37:14;;;;;;;7.10;6.00;;;6.90;99.90;;;;;;5057720;28;20470;-62
2021/12/27 10:39:56;;;;;;;6.97;6.27;;;7.10;99.90;;;;;;5056828;28;20516;-62
2021/12/27 10:42:26;;;;;;;10.03;6.90;;;7.40;99.90;;;;;;5056952;28;20465;-62
2021/12/27 10:44:59;;;;;;;7.73;6.50;;;7.40;99.90;;;;;;5054924;28;20504;-63
2021/12/27 10:47:34;;;;;;;10.60;8.10;;;7.40;99.90;;;;;;5055976;28;20469;-62
2021/12/27 10:50:08;;;;;;;11.57;7.40;;;7.20;99.90;;;;;;5056176;28;20978;-62
2021/12/27 10:52:50;;;;;;;7.67;6.93;;;7.10;99.90;;;;;;5055769;28;20462;-62
2021/12/27 10:55:23;;;;;;;23.37;9.47;;;7.10;99.90;;;;;;5053671;28;20473;-63
2021/12/27 10:57:51;;;;;;;33.20;11.00;;;7.20;99.90;;;;;;5055745;28;20510;-62
2021/12/27 11:00:26;;;;;;;73.30;40.37;;;7.40;99.90;;;;;;5056262;28;20459;-62
2021/12/27 11:03:02;;;;;;;7.30;5.80;;;7.70;99.90;;;;;;5058822;28;20469;-62
2021/12/27 11:05:31;;;;;;;6.10;5.50;;;7.80;99.90;;;;;;5053485;28;20755;-63
2021/12/27 11:08:03;;;;;;;16.33;11.20;;;7.80;99.90;;;;;;5055572;28;20485;-62
2021/12/27 11:10:32;;;;;;;18.80;11.93;;;7.50;99.90;;;;;;5059170;28;20529;-63
2021/12/27 11:13:05;;;;;;;12.10;8.33;;;7.20;99.90;;;;;;5055928;28;20466;-62
2021/12/27 11:15:34;;;;;;;9.00;8.10;;;7.10;99.90;;;;;;5053810;28;20819;-62
2021/12/27 11:18:08;;;;;;;12.93;8.60;;;7.10;99.90;;;;;;5056176;28;20463;-62
2021/12/27 11:20:36;;;;;;;21.03;12.20;;;7.20;99.90;;;;;;5056737;28;20836;-62
2021/12/27 11:23:06;;;;;;;16.13;10.10;;;7.20;99.90;;;;;;5060209;28;20472;-62
2021/12/27 11:25:36;;;;;;;25.03;14.97;;;7.10;99.90;;;;;;5058480;28;20954;-62
2021/12/27 11:28:05;;;;;;;7.10;5.90;;;7.20;99.90;;;;;;5054590;28;20466;-63
2021/12/27 11:30:35;;;;;;;10.20;8.13;;;7.20;99.90;;;;;;5062029;28;20498;-62
2021/12/27 11:33:09;;;;;;;10.13;8.17;;;7.20;99.90;;;;;;5053947;28;20453;-63
2021/12/27 11:36:01;;;;;;;11.30;9.90;;;7.10;99.90;;;;;;5056280;28;20457;-63
2021/12/27 11:38:32;;;;;;;5.63;5.13;;;7.20;99.90;;;;;;5056500;28;20459;-63
2021/12/27 11:41:00;;;;;;;8.63;6.90;;;7.30;99.90;;;;;;5066775;28;20522;-63
2021/12/27 11:43:49;;;;;;;9.97;7.20;;;7.50;99.90;;;;;;5055854;28;20473;-62
2021/12/27 11:46:16;;;;;;;10.00;8.17;;;7.50;99.90;;;;;;5053736;28;20462;-63
2021/12/27 11:48:48;;;;;;;14.20;8.93;;;7.60;99.90;;;;;;5055714;28;20489;-62
2021/12/27 11:51:16;;;;;;;10.93;7.90;;;7.50;99.90;;;;;;5055873;28;20925;-62
2021/12/27 11:53:52;;;;;;;10.80;8.77;;;7.50;99.90;;;;;;5056349;28;20466;-62
2021/12/27 11:56:35;;;;;;;14.17;11.00;;;7.40;99.90;;;;;;5065667;28;20473;-63
2021/12/27 11:59:03;;;;;;;11.27;8.40;;;7.30;99.90;;;;;;5055378;28;20941;-63
2021/12/27 12:01:38;;;;;;;10.53;8.70;;;7.30;99.90;;;;;;5055776;28;20466;-63
2021/12/27 12:04:07;;;;;;;9.53;7.93;;;7.50;99.90;;;;;;5056234;28;20918;-63
2021/12/27 12:06:41;;;;;;;7.53;6.83;;;7.60;99.90;;;;;;5058124;28;20474;-63
2021/12/27 12:09:14;;;;;;;6.60;6.00;;;7.60;99.90;;;;;;5017983;28;20538;-63
2021/12/27 12:11:42;;;;;;;5.80;5.30;;;7.60;99.90;;;;;;5024411;28;20522;-63
2021/12/27 12:14:29;;;;;;;7.03;6.03;;;7.70;99.90;;;;;;5020263;28;20554;-63
2021/12/27 12:16:57;;;;;;;9.63;5.70;;;7.70;99.90;;;;;;5029651;28;20456;-63
2021/12/27 12:19:47;;;;;;;6.23;5.17;;;7.70;99.90;;;;;;5019938;28;20438;-63
2021/12/27 12:22:37;;;;;;;5.13;4.63;;;7.70;99.90;;;;;;5020306;28;20460;-62
2021/12/27 12:25:23;;;;;;;5.67;5.17;;;7.80;99.90;;;;;;5019686;28;20498;-63
2021/12/27 12:27:57;;;;;;;5.20;4.70;;;7.80;99.90;;;;;;5019603;28;20559;-62
2021/12/27 12:30:27;;;;;;;5.10;4.60;;;7.80;99.90;;;;;;5023541;28;20546;-63
2021/12/27 12:32:59;;;;;;;5.10;4.70;;;7.70;99.90;;;;;;5020252;28;20523;-63
2021/12/27 12:35:36;;;;;;;5.33;4.93;;;7.60;99.90;;;;;;5028404;28;20903;-63
2021/12/27 12:38:11;;;;;;;4.93;4.50;;;7.70;99.90;;;;;;5019774;28;20460;-63
2021/12/27 12:40:38;;;;;;;5.60;5.10;;;7.80;99.90;;;;;;5019854;28;20464;-62
2021/12/27 12:43:06;;;;;;;5.60;5.07;;;7.90;99.90;;;;;;5018971;28;20806;-63
2021/12/27 12:45:40;;;;;;;5.73;5.07;;;7.90;99.90;;;;;;5023538;28;20913;-62
2021/12/27 12:48:07;;;;;;;5.47;4.83;;;7.90;99.90;;;;;;5020027;28;20455;-62
2021/12/27 12:50:36;;;;;;;6.57;5.87;;;8.00;99.90;;;;;;5019340;28;20493;-62
2021/12/27 12:53:11;;;;;;;5.70;5.07;;;7.90;99.90;;;;;;5019446;28;20514;-62
2021/12/27 12:55:39;;;;;;;5.03;4.60;;;8.00;99.90;;;;;;5025577;28;20525;-62
2021/12/27 12:58:06;;;;;;;5.00;4.50;;;7.90;99.90;;;;;;5019527;28;20463;-62
2021/12/27 13:00:36;;;;;;;5.33;4.87;;;7.90;99.90;;;;;;5019284;28;20463;-63
2021/12/27 13:03:11;;;;;;;5.17;4.67;;;7.90;99.90;;;;;;5019177;28;20506;-62